NCAR-RAP Real-Time Weather Data

Output produced by METARs form (10 April 2020  06:07 UTC)
found at http://weather.rap.ucar.edu/surface/
 
KPAH 100553Z AUTO 35017G27KT 10SM CLR 07/M05 A3006 RMK AO2 PK WND 36027/0508 SLP179 T00721050 10161 20067 401830067 51046
KPAH 100453Z AUTO 35015G20KT 10SM CLR 08/M03 A3003 RMK AO2 PK WND 36034/0356 PRESRR SLP169 T00831028
KPAH 100353Z 35018G31KT 10SM CLR 11/M03 A2998 RMK AO2 PK WND 36031/0346 PRESRR SLP151 T01061033
KPAH 100253Z 30004KT 10SM CLR 12/M04 A2993 RMK AO2 SLP133 T01171044 51025
KPAH 100153Z 32013G20KT 10SM CLR 13/M06 A2991 RMK AO2 SLP128 T01331061
KPAH 100053Z 29011G19KT 10SM CLR 15/M05 A2987 RMK AO2 SLP114 T01501050
KPAH 092353Z 29012G18KT 10SM SCT110 17/M03 A2985 RMK AO2 SLP107 T01671033 10183 20161 56004
KPAH 092253Z 29007G18KT 10SM FEW120 17/M02 A2985 RMK AO2 SLP107 T01721017
KPAH 092153Z 25010KT 10SM FEW100 17/M01 A2985 RMK AO2 SLP107 T01721006
KPAH 092053Z 23010KT 10SM CLR 18/M01 A2986 RMK AO2 SLP110 T01781006 58024
KPAH 091953Z 25011G19KT 10SM CLR 17/M01 A2989 RMK AO2 SLP121 T01721011
KPAH 091853Z 31010G18KT 10SM CLR 17/M02 A2991 RMK AO2 SLP125 T01721022
KPAH 091753Z 35008KT 10SM CLR 17/M02 A2993 RMK AO2 SLP134 T01671017 10167 20106 58018
KPAH 091653Z 29006KT 10SM CLR 15/M02 A2995 RMK AO2 SLP141 T01501022
KPAH 091553Z 34010KT 10SM CLR 15/M01 A2998 RMK AO2 SLP149 T01501006
KPAH 091453Z 34007G20KT 10SM CLR 14/M02 A2999 RMK AO2 SLP153 T01391017 51009
KPAH 091353Z 01008G17KT 10SM CLR 13/M01 A2998 RMK AO2 SLP149 T01281011
KPAH 091253Z 35008KT 10SM CLR 12/02 A2999 RMK AO2 SLP154 T01170022
KPAH 091153Z 35008KT 10SM CLR 11/03 A2996 RMK AO2 SLP142 70027 T01060028 10172 20100 51039
KPAH 091053Z 35011G18KT 10SM CLR 11/04 A2993 RMK AO2 SLP130 T01060044
KPAH 090953Z AUTO 35014G24KT 10SM CLR 12/04 A2990 RMK AO2 PK WND 01026/0911 SLP120 T01170044
KPAH 090853Z AUTO 35013G18KT 10SM CLR 13/07 A2984 RMK AO2 SLP103 T01280067 53030
KPAH 090753Z AUTO 34013G23KT 10SM SCT110 14/07 A2982 RMK AO2 SLP093 T01390067